Time;durP1;ratioP1;P1;durP2;ratioP2;P2;SDS_P1;SDS_P2;PMS_P1;PMS_P2;Temp;Humidity;BMP_temperature;BMP_pressure;BME280_temperature;BME280_humidity;BME280_pressure;Samples;Min_cycle;Max_cycle;Signal;HPM_P1;HPM_P2
2023/06/07 00:01:33;;;;;;;6.00;5.40;;;;;;;12.15;100.00;96386.09;7393839;19;20353;-74
2023/06/07 00:04:02;;;;;;;5.70;5.10;;;;;;;12.03;100.00;96363.06;7391524;19;20420;-74
2023/06/07 00:06:32;;;;;;;6.23;5.50;;;;;;;12.07;100.00;96377.16;7396575;19;20362;-74
2023/06/07 00:08:59;;;;;;;4.93;4.43;;;;;;;11.84;100.00;96355.66;7394622;19;20761;-74
2023/06/07 00:11:26;;;;;;;7.83;5.23;;;;;;;11.98;100.00;96357.97;7396826;19;20352;-74
2023/06/07 00:13:53;;;;;;;6.00;5.40;;;;;;;11.94;100.00;96374.88;7398894;19;20425;-75
2023/06/07 00:16:20;;;;;;;6.37;5.80;;;;;;;11.81;100.00;96372.22;7403700;19;20880;-75
2023/06/07 00:18:47;;;;;;;6.13;5.60;;;;;;;11.93;100.00;96383.94;7400916;19;20795;-74
2023/06/07 00:21:17;;;;;;;12.93;4.90;;;;;;;11.91;100.00;96386.16;7401614;19;20381;-75
2023/06/07 00:23:44;;;;;;;6.50;5.77;;;;;;;11.77;100.00;96387.22;7399379;19;20444;-74
2023/06/07 00:26:11;;;;;;;11.60;5.77;;;;;;;11.62;100.00;96366.72;7402384;19;20383;-74
2023/06/07 00:28:38;;;;;;;8.10;5.63;;;;;;;11.53;100.00;96368.69;7400573;19;20935;-74
2023/06/07 00:31:05;;;;;;;10.33;5.47;;;;;;;11.75;100.00;96386.00;7402325;19;20404;-74
2023/06/07 00:33:33;;;;;;;10.17;6.33;;;;;;;11.66;100.00;96378.16;7399433;19;20412;-74
2023/06/07 00:35:59;;;;;;;5.63;4.80;;;;;;;11.79;100.00;96379.75;7402242;19;20452;-74
2023/06/07 00:38:26;;;;;;;12.70;5.70;;;;;;;11.68;100.00;96360.06;7400138;19;20743;-74
2023/06/07 00:40:56;;;;;;;11.13;4.70;;;;;;;11.61;100.00;96353.78;7399615;19;20392;-74
2023/06/07 00:43:24;;;;;;;7.40;4.53;;;;;;;11.88;100.00;96382.25;7401834;19;20396;-75
2023/06/07 00:45:51;;;;;;;14.67;5.17;;;;;;;11.77;100.00;96358.09;7402128;19;20415;-74
2023/06/07 00:48:18;;;;;;;16.87;6.30;;;;;;;11.99;100.00;96364.03;7400458;19;20388;-74
2023/06/07 00:50:46;;;;;;;5.90;5.40;;;;;;;12.22;100.00;96390.84;7402295;19;20501;-74
2023/06/07 00:53:14;;;;;;;6.90;5.40;;;;;;;12.22;100.00;96391.59;7399456;19;20424;-74
2023/06/07 00:55:42;;;;;;;5.73;5.10;;;;;;;12.19;100.00;96399.47;7401772;19;20404;-74
2023/06/07 00:58:10;;;;;;;6.43;5.83;;;;;;;12.10;100.00;96392.41;7400266;19;20489;-75
2023/06/07 01:00:37;;;;;;;6.67;6.17;;;;;;;11.92;100.00;96363.84;7398749;19;20392;-74
2023/06/07 01:03:05;;;;;;;6.30;5.80;;;;;;;12.19;100.00;96394.16;7398062;19;20416;-74
2023/06/07 01:05:33;;;;;;;6.97;5.87;;;;;;;11.92;100.00;96375.22;7398244;19;20376;-74
2023/06/07 01:08:00;;;;;;;9.67;6.70;;;;;;;11.63;100.00;96384.13;7400668;19;20404;-74
2023/06/07 01:10:28;;;;;;;7.87;5.53;;;;;;;11.54;100.00;96360.41;7398507;19;20344;-74
2023/06/07 01:12:56;;;;;;;7.50;6.67;;;;;;;11.50;100.00;96340.22;7399612;19;20404;-74
2023/06/07 01:15:24;;;;;;;11.57;7.90;;;;;;;11.50;100.00;96338.34;7398482;19;20424;-74
2023/06/07 01:17:53;;;;;;;10.30;8.33;;;;;;;11.55;100.00;96353.22;7400146;19;20373;-74
2023/06/07 01:20:24;;;;;;;8.03;7.23;;;;;;;11.44;100.00;96354.78;7398603;19;20403;-74
2023/06/07 01:22:56;;;;;;;8.50;7.00;;;;;;;11.76;100.00;96355.78;7398169;19;20420;-74
2023/06/07 01:25:25;;;;;;;8.97;6.83;;;;;;;11.81;100.00;96353.69;7399135;19;20410;-74
2023/06/07 01:27:53;;;;;;;10.00;6.33;;;;;;;11.92;100.00;96372.56;7400489;19;20400;-74
2023/06/07 01:30:22;;;;;;;7.43;6.73;;;;;;;11.89;100.00;96352.03;7399152;19;20402;-75
2023/06/07 01:32:51;;;;;;;6.60;6.00;;;;;;;11.81;100.00;96337.03;7400143;19;20413;-74
2023/06/07 01:35:19;;;;;;;8.43;7.80;;;;;;;11.96;100.00;96381.38;7398552;19;20376;-75
2023/06/07 01:37:47;;;;;;;8.07;7.47;;;;;;;11.83;100.00;96356.00;7400284;19;20363;-75
2023/06/07 01:40:15;;;;;;;7.30;6.70;;;;;;;11.59;100.00;96313.63;7399463;19;20421;-75
2023/06/07 01:42:42;;;;;;;7.87;7.17;;;;;;;11.80;100.00;96360.09;7395865;19;20456;-75
2023/06/07 01:45:10;;;;;;;6.93;6.23;;;;;;;11.92;100.00;96375.22;7398730;19;20417;-75
2023/06/07 01:47:37;;;;;;;7.00;6.40;;;;;;;11.86;100.00;96355.34;7397104;19;20405;-75
2023/06/07 01:50:05;;;;;;;6.80;6.30;;;;;;;12.04;100.00;96377.06;7398739;19;20364;-74
2023/06/07 01:52:33;;;;;;;7.30;6.60;;;;;;;12.07;100.00;96373.75;7396680;19;20727;-74
2023/06/07 01:55:01;;;;;;;8.07;7.47;;;;;;;12.13;100.00;96367.88;7398824;19;20388;-75
2023/06/07 01:57:50;;;;;;;7.30;6.80;;;;;;;12.16;100.00;96371.75;7397225;19;20408;-74
2023/06/07 02:00:40;;;;;;;7.60;7.00;;;;;;;12.26;100.00;96368.63;7399017;19;20405;-75
2023/06/07 02:03:33;;;;;;;7.83;7.23;;;;;;;12.28;100.00;96360.31;7396623;19;20433;-74
2023/06/07 02:06:06;;;;;;;7.83;7.23;;;;;;;12.40;100.00;96369.00;7397291;19;20388;-74
2023/06/07 02:08:38;;;;;;;8.27;7.53;;;;;;;12.13;100.00;96356.50;7400765;19;20349;-74
2023/06/07 02:11:07;;;;;;;8.73;8.03;;;;;;;12.00;100.00;96339.84;7398328;19;20341;-75
2023/06/07 02:13:37;;;;;;;8.47;7.80;;;;;;;12.12;100.00;96361.03;7395118;19;20432;-74
2023/06/07 02:16:05;;;;;;;9.17;8.37;;;;;;;11.99;100.00;96340.19;7398185;19;20375;-75
2023/06/07 02:18:37;;;;;;;8.70;8.00;;;;;;;12.07;100.00;96369.22;7396442;19;20364;-74
2023/06/07 02:21:04;;;;;;;11.27;10.37;;;;;;;11.81;100.00;96360.88;7399862;19;20351;-75
2023/06/07 02:23:31;;;;;;;9.50;8.67;;;;;;;11.69;100.00;96351.03;7394451;19;20783;-76
2023/06/07 02:25:58;;;;;;;9.70;8.80;;;;;;;11.76;100.00;96335.34;7397602;19;20924;-76
2023/06/07 02:28:25;;;;;;;10.10;9.07;;;;;;;11.71;100.00;96343.50;7396896;19;20368;-76
2023/06/07 02:30:55;;;;;;;9.97;9.17;;;;;;;11.54;100.00;96347.16;7396275;19;20420;-76
2023/06/07 02:33:24;;;;;;;9.20;8.47;;;;;;;11.73;100.00;96359.84;7396886;19;20388;-76
2023/06/07 02:35:51;;;;;;;8.80;8.10;;;;;;;11.70;100.00;96339.31;7396761;19;20380;-76
2023/06/07 02:38:18;;;;;;;8.30;7.60;;;;;;;11.56;100.00;96344.19;7396950;19;20392;-76
2023/06/07 02:40:45;;;;;;;8.00;7.30;;;;;;;11.68;100.00;96344.19;7399572;19;20387;-76
2023/06/07 02:43:14;;;;;;;9.47;8.60;;;;;;;11.72;100.00;96349.56;7395564;19;20768;-76
2023/06/07 02:45:41;;;;;;;8.73;8.03;;;;;;;11.86;100.00;96365.16;7400606;19;20404;-76
2023/06/07 02:48:07;;;;;;;8.77;7.97;;;;;;;11.78;100.00;96354.34;7397687;19;20418;-76
2023/06/07 02:50:35;;;;;;;9.30;8.60;;;;;;;11.56;100.00;96304.47;7397958;19;20404;-76
2023/06/07 02:53:05;;;;;;;9.83;9.03;;;;;;;11.75;100.00;96328.50;7397530;19;20435;-75
2023/06/07 02:55:33;;;;;;;9.07;8.23;;;;;;;12.07;100.00;96379.81;7398003;19;20389;-75
2023/06/07 02:58:00;;;;;;;7.90;7.30;;;;;;;11.80;100.00;96322.25;7397863;19;20371;-75
2023/06/07 03:00:34;;;;;;;8.70;8.00;;;;;;;11.88;100.00;96342.53;7397907;19;20341;-76
2023/06/07 03:03:07;;;;;;;8.57;7.97;;;;;;;12.04;100.00;96361.19;7395533;19;20428;-76
2023/06/07 03:05:40;;;;;;;8.90;8.13;;;;;;;11.83;100.00;96348.81;7394834;19;20368;-76
2023/06/07 03:08:10;;;;;;;8.80;8.10;;;;;;;11.81;100.00;96351.03;7396869;19;20900;-76
2023/06/07 03:10:40;;;;;;;9.90;9.00;;;;;;;11.93;100.00;96373.34;7395426;19;20374;-76
2023/06/07 03:13:08;;;;;;;10.30;9.40;;;;;;;11.76;100.00;96339.88;7396307;19;20447;-76
2023/06/07 03:15:37;;;;;;;9.50;8.70;;;;;;;11.87;100.00;96356.88;7395487;19;20436;-76
2023/06/07 03:18:04;;;;;;;8.57;7.87;;;;;;;11.93;100.00;96360.09;7396760;19;20378;-76
2023/06/07 03:20:34;;;;;;;11.00;10.10;;;;;;;11.85;100.00;96348.50;7395481;19;20386;-76
2023/06/07 03:23:07;;;;;;;9.83;9.03;;;;;;;11.84;100.00;96358.31;7400460;19;20420;-76
2023/06/07 03:25:36;;;;;;;10.13;9.23;;;;;;;12.03;100.00;96381.59;7396200;19;20380;-76
2023/06/07 03:28:04;;;;;;;10.60;9.73;;;;;;;11.92;100.00;96346.06;7397137;19;20404;-76
2023/06/07 03:30:37;;;;;;;10.07;9.17;;;;;;;12.12;100.00;96376.16;7396116;19;20408;-76
2023/06/07 03:33:05;;;;;;;10.97;10.07;;;;;;;12.05;100.00;96357.41;7393444;19;20766;-76
2023/06/07 03:35:34;;;;;;;10.50;9.60;;;;;;;12.20;100.00;96377.16;7395973;19;20737;-76
2023/06/07 03:38:03;;;;;;;10.37;9.47;;;;;;;12.22;100.00;96383.66;7394666;19;20384;-76
2023/06/07 03:40:31;;;;;;;11.17;10.17;;;;;;;12.02;100.00;96366.81;7396309;19;20369;-76
2023/06/07 03:42:59;;;;;;;10.57;9.67;;;;;;;12.18;100.00;96377.50;7393593;19;20417;-76
2023/06/07 03:45:27;;;;;;;11.50;10.50;;;;;;;12.05;100.00;96360.84;7398518;19;20881;-76
2023/06/07 03:48:00;;;;;;;11.70;10.70;;;;;;;12.06;100.00;96359.72;7402438;19;20385;-76
2023/06/07 03:50:29;;;;;;;10.20;9.30;;;;;;;12.08;100.00;96368.13;7404862;19;20439;-76
2023/06/07 03:52:56;;;;;;;12.53;11.40;;;;;;;12.01;100.00;96378.50;7403732;19;20408;-76
2023/06/07 03:55:23;;;;;;;13.23;11.80;;;;;;;11.89;100.00;96359.22;7408098;19;20357;-76
2023/06/07 03:57:51;;;;;;;12.23;11.23;;;;;;;11.75;100.00;96333.81;7404464;19;20361;-76
2023/06/07 04:00:18;;;;;;;12.27;11.27;;;;;;;11.89;100.00;96361.88;7405642;19;20380;-76
2023/06/07 04:02:50;;;;;;;13.67;12.43;;;;;;;12.14;100.00;96395.91;7400917;19;20423;-76
2023/06/07 04:05:18;;;;;;;12.97;11.87;;;;;;;12.04;100.00;96363.81;7403795;19;20384;-76
2023/06/07 04:07:47;;;;;;;13.30;12.10;;;;;;;12.45;100.00;96401.72;7402143;19;20444;-76
2023/06/07 04:10:14;;;;;;;14.53;13.13;;;;;;;12.36;100.00;96373.47;7406024;19;20364;-76
2023/06/07 04:12:43;;;;;;;12.90;11.60;;;;;;;12.20;100.00;96361.25;7402634;19;20452;-76
2023/06/07 04:15:12;;;;;;;13.20;12.10;;;;;;;12.40;100.00;96387.56;7401162;19;20468;-76
2023/06/07 04:17:39;;;;;;;12.77;11.60;;;;;;;12.48;100.00;96390.44;7402223;19;20387;-76
2023/06/07 04:20:07;;;;;;;14.30;12.90;;;;;;;12.45;100.00;96385.81;7400222;19;20410;-76
2023/06/07 04:22:35;;;;;;;12.30;11.20;;;;;;;12.50;100.00;96383.69;7401357;19;20809;-76
2023/06/07 04:25:05;;;;;;;14.30;13.10;;;;;;;12.41;100.00;96367.91;7400248;19;20932;-76
2023/06/07 04:27:34;;;;;;;13.00;11.93;;;;;;;12.66;100.00;96386.41;7402375;19;20384;-76
2023/06/07 04:30:02;;;;;;;12.80;11.50;;;;;;;12.73;100.00;96392.69;7409337;19;20361;-75
2023/06/07 04:32:33;;;;;;;15.40;13.80;;;;;;;12.57;100.00;96367.97;7437392;19;20391;-75
2023/06/07 04:35:02;;;;;;;15.77;14.17;;;;;;;12.66;100.00;96378.44;7436458;19;20396;-75
2023/06/07 04:37:31;;;;;;;17.97;14.40;;;;;;;12.65;100.00;96380.31;7426728;19;20476;-76
2023/06/07 04:39:58;;;;;;;17.17;15.40;;;;;;;12.72;100.00;96385.81;7399870;19;20389;-75
2023/06/07 04:42:27;;;;;;;17.33;15.63;;;;;;;12.83;100.00;96395.97;7401923;19;20444;-76
2023/06/07 04:44:55;;;;;;;20.63;16.40;;;;;;;12.76;100.00;96372.66;7400916;19;20384;-76
2023/06/07 04:47:24;;;;;;;15.80;14.13;;;;;;;13.10;100.00;96408.44;7402323;19;20412;-76
2023/06/07 04:49:53;;;;;;;20.90;18.70;;;;;;;13.07;100.00;96390.50;7400624;19;20400;-75
2023/06/07 04:52:20;;;;;;;19.67;17.67;;;;;;;13.12;100.00;96384.19;7402128;19;20425;-76
2023/06/07 04:54:56;;;;;;;19.10;17.27;;;;;;;13.02;100.00;96378.28;7400672;19;20895;-76
2023/06/07 04:57:26;;;;;;;21.60;19.50;;;;;;;13.13;100.00;96385.75;7397705;19;20888;-76
2023/06/07 04:59:54;;;;;;;19.97;17.90;;;;;;;13.45;100.00;96405.16;7400930;19;20888;-76
2023/06/07 05:02:28;;;;;;;17.50;15.90;;;;;;;13.26;100.00;96369.44;7398866;19;20365;-76
2023/06/07 05:04:57;;;;;;;16.70;15.10;;;;;;;13.39;100.00;96403.88;7400701;19;20787;-75
2023/06/07 05:07:32;;;;;;;18.77;16.87;;;;;;;13.47;100.00;96408.22;7399247;19;20976;-75
2023/06/07 05:10:02;;;;;;;21.50;19.40;;;;;;;13.36;100.00;96402.69;7401214;19;20388;-75
2023/06/07 05:12:30;;;;;;;22.33;19.93;;;;;;;13.30;100.00;96380.13;7399625;19;20828;-75
2023/06/07 05:14:57;;;;;;;20.70;18.50;;;;;;;13.42;100.00;96380.06;7401994;19;20369;-74
2023/06/07 05:17:28;;;;;;;20.23;18.23;;;;;;;13.76;100.00;96402.50;7400701;19;20392;-74
2023/06/07 05:19:55;;;;;;;24.47;21.43;;;;;;;13.70;100.00;96389.81;7410558;19;20368;-75
2023/06/07 05:22:23;;;;;;;23.63;21.37;;;;;;;13.70;100.00;96406.53;7412537;19;20385;-76
2023/06/07 05:24:51;;;;;;;23.00;20.70;;;;;;;13.87;100.00;96413.34;7408140;19;20428;-75
2023/06/07 05:27:18;;;;;;;23.20;20.90;;;;;;;14.05;100.00;96427.84;7412630;19;20369;-75
2023/06/07 05:29:45;;;;;;;23.80;21.40;;;;;;;14.04;100.00;96422.88;7410913;19;20493;-75
2023/06/07 05:32:12;;;;;;;25.27;22.87;;;;;;;14.18;100.00;96418.63;7408538;19;20413;-75
2023/06/07 05:34:39;;;;;;;24.43;21.93;;;;;;;14.17;100.00;96403.81;7404255;19;20517;-75
2023/06/07 05:37:06;;;;;;;26.77;23.97;;;;;;;14.24;100.00;96410.38;7407231;19;20985;-75
2023/06/07 05:39:34;;;;;;;26.27;23.47;;;;;;;14.28;100.00;96421.84;7398269;19;20776;-75
2023/06/07 05:42:01;;;;;;;24.77;22.00;;;;;;;14.40;100.00;96413.75;7398934;19;20397;-75
2023/06/07 05:44:28;;;;;;;26.07;23.40;;;;;;;14.74;100.00;96433.50;7395669;19;20500;-75
2023/06/07 05:46:55;;;;;;;25.70;23.20;;;;;;;14.79;100.00;96402.03;7399358;19;20404;-75
2023/06/07 05:49:22;;;;;;;23.77;21.47;;;;;;;14.94;100.00;96407.63;7397353;19;20476;-75
2023/06/07 05:51:50;;;;;;;26.40;23.70;;;;;;;15.00;100.00;96433.66;7398686;19;20932;-75
2023/06/07 05:54:17;;;;;;;22.83;20.70;;;;;;;15.16;100.00;96422.91;7395946;19;20432;-75
2023/06/07 05:56:44;;;;;;;22.80;20.70;;;;;;;15.47;100.00;96411.25;7399010;19;20404;-75
2023/06/07 05:59:11;;;;;;;23.97;21.63;;;;;;;15.82;100.00;96435.09;7396956;19;20760;-75
2023/06/07 06:01:40;;;;;;;24.43;21.93;;;;;;;15.26;100.00;96409.00;7400382;19;20827;-75
2023/06/07 06:04:07;;;;;;;25.73;21.93;;;;;;;15.37;100.00;96436.59;7397433;19;20446;-75
2023/06/07 06:06:36;;;;;;;20.70;18.80;;;;;;;15.32;100.00;96396.16;7400076;19;21036;-75
2023/06/07 06:09:03;;;;;;;23.37;20.97;;;;;;;15.81;100.00;96432.78;7394934;19;20778;-75
2023/06/07 06:11:30;;;;;;;21.97;19.67;;;;;;;16.03;100.00;96444.56;7398284;19;20364;-76
2023/06/07 06:13:57;;;;;;;21.43;19.30;;;;;;;16.01;100.00;96414.78;7395507;19;20438;-76
2023/06/07 06:16:24;;;;;;;19.30;17.37;;;;;;;16.44;100.00;96426.84;7398721;19;20746;-76
2023/06/07 06:18:51;;;;;;;18.70;16.80;;;;;;;16.68;100.00;96437.09;7397218;19;20368;-76
2023/06/07 06:21:18;;;;;;;17.93;16.23;;;;;;;16.65;100.00;96426.34;7398940;19;20404;-76
2023/06/07 06:23:45;;;;;;;18.50;16.90;;;;;;;16.40;100.00;96423.34;7397117;19;20416;-76
2023/06/07 06:26:12;;;;;;;19.30;17.50;;;;;;;16.34;100.00;96406.88;7399753;19;20381;-76
2023/06/07 06:28:39;;;;;;;17.93;16.20;;;;;;;16.10;100.00;96429.41;7398174;19;20374;-76
2023/06/07 06:31:06;;;;;;;19.83;16.10;;;;;;;16.10;100.00;96389.41;7399702;19;20389;-76
2023/06/07 06:33:33;;;;;;;17.13;15.50;;;;;;;16.48;100.00;96423.09;7395831;19;20488;-76
2023/06/07 06:36:00;;;;;;;17.33;15.57;;;;;;;16.43;100.00;96411.97;7398179;19;20369;-76
2023/06/07 06:38:27;;;;;;;19.70;17.90;;;;;;;16.45;100.00;96436.41;7398101;19;20408;-76
2023/06/07 06:40:54;;;;;;;17.47;15.80;;;;;;;16.39;100.00;96451.16;7397862;19;20377;-76
2023/06/07 06:43:21;;;;;;;15.83;14.33;;;;;;;16.51;100.00;96437.59;7396044;19;20429;-76
2023/06/07 06:45:54;;;;;;;18.80;17.10;;;;;;;16.66;100.00;96420.63;7397953;19;20978;-76
2023/06/07 06:48:21;;;;;;;17.90;16.20;;;;;;;17.27;100.00;96427.47;7396750;19;20435;-76
2023/06/07 06:50:49;;;;;;;18.13;16.43;;;;;;;18.08;100.00;96466.78;7399510;19;20413;-76
2023/06/07 06:53:16;;;;;;;16.70;15.20;;;;;;;18.07;100.00;96443.06;7396016;19;20440;-76
2023/06/07 06:55:43;;;;;;;16.47;14.87;;;;;;;18.43;100.00;96465.47;7396281;19;20750;-76
2023/06/07 06:58:10;;;;;;;14.80;13.43;;;;;;;18.17;100.00;96464.56;7396582;19;20365;-76
2023/06/07 07:00:38;;;;;;;17.07;15.33;;;;;;;17.88;100.00;96466.22;7395159;19;20346;-76
2023/06/07 07:03:05;;;;;;;16.30;14.80;;;;;;;17.71;100.00;96475.63;7397033;19;20978;-76
2023/06/07 07:05:33;;;;;;;16.70;15.30;;;;;;;17.71;100.00;96475.63;7395180;19;20377;-76
2023/06/07 07:08:02;;;;;;;15.77;14.33;;;;;;;17.31;100.00;96443.53;7398277;19;20361;-76
2023/06/07 07:10:29;;;;;;;17.87;16.17;;;;;;;17.24;100.00;96456.81;7396672;19;20403;-76
2023/06/07 07:12:56;;;;;;;14.70;13.47;;;;;;;17.17;100.00;96454.84;7397691;19;20386;-76
2023/06/07 07:15:22;;;;;;;14.90;13.60;;;;;;;17.31;100.00;96460.31;7394696;19;20909;-76
2023/06/07 07:17:50;;;;;;;15.53;14.13;;;;;;;17.22;100.00;96440.38;7396516;19;20353;-77
2023/06/07 07:20:17;;;;;;;15.20;13.70;;;;;;;17.34;100.00;96451.56;7393963;19;20423;-77
2023/06/07 07:22:46;;;;;;;15.63;14.10;;;;;;;17.61;100.00;96472.84;7395617;19;20406;-77
2023/06/07 07:25:16;;;;;;;15.20;13.80;;;;;;;17.63;100.00;96463.31;7393180;19;20399;-77
2023/06/07 07:27:43;;;;;;;15.83;13.00;;;;;;;17.66;100.00;96469.84;7396272;19;20393;-77
2023/06/07 07:30:11;;;;;;;13.50;12.40;;;;;;;17.73;100.00;96454.63;7394479;19;20376;-76
2023/06/07 07:32:38;;;;;;;12.40;11.30;;;;;;;17.90;100.00;96460.53;7395903;19;20375;-76
2023/06/07 07:35:06;;;;;;;12.90;11.83;;;;;;;18.00;100.00;96478.56;7394295;19;20964;-76
2023/06/07 07:37:33;;;;;;;14.07;12.10;;;;;;;17.64;100.00;96483.59;7397700;19;20424;-76
2023/06/07 07:40:00;;;;;;;11.67;10.73;;;;;;;18.01;100.00;96461.34;7394492;19;20349;-76
2023/06/07 07:42:27;;;;;;;12.70;11.60;;;;;;;18.22;100.00;96450.81;7397313;19;20363;-77
2023/06/07 07:44:54;;;;;;;13.90;12.13;;;;;;;18.41;100.00;96468.50;7394426;19;20411;-77
2023/06/07 07:47:21;;;;;;;12.67;11.57;;;;;;;18.72;100.00;96451.13;7395819;19;20909;-76
2023/06/07 07:49:51;;;;;;;12.80;11.50;;;;;;;19.24;100.00;96459.75;7394400;19;20343;-76
2023/06/07 07:52:19;;;;;;;12.27;11.13;;;;;;;18.74;100.00;96462.25;7396320;19;20405;-76
2023/06/07 07:54:48;;;;;;;12.57;11.27;;;;;;;18.64;100.00;96457.59;7394048;19;20406;-77
2023/06/07 07:57:15;;;;;;;12.77;11.67;;;;;;;18.50;100.00;96457.50;7396232;19;20386;-77
2023/06/07 07:59:43;;;;;;;11.93;10.83;;;;;;;18.67;100.00;96467.56;7394260;19;20992;-77
2023/06/07 08:02:10;;;;;;;12.30;11.10;;;;;;;19.09;100.00;96448.19;7396009;19;20378;-76
2023/06/07 08:04:37;;;;;;;11.77;10.70;;;;;;;18.90;100.00;96465.38;7392282;19;21022;-77
2023/06/07 08:07:04;;;;;;;13.10;11.80;;;;;;;19.18;100.00;96471.97;7395847;19;20339;-76
2023/06/07 08:09:31;;;;;;;11.43;10.43;;;;;;;18.92;100.00;96466.91;7394919;19;20375;-76
2023/06/07 08:11:58;;;;;;;12.13;11.03;;;;;;;18.82;100.00;96477.19;7394075;19;20337;-76
2023/06/07 08:14:25;;;;;;;11.73;10.73;;;;;;;18.48;100.00;96473.94;7393215;19;20442;-76
2023/06/07 08:16:52;;;;;;;10.77;9.90;;;;;;;18.74;100.00;96464.91;7394225;19;20347;-76
2023/06/07 08:19:19;;;;;;;10.20;9.30;;;;;;;18.66;100.00;96467.94;7394056;19;20489;-76
2023/06/07 08:21:47;;;;;;;10.40;9.50;;;;;;;18.34;100.00;96451.66;7392360;19;20955;-76
2023/06/07 08:24:14;;;;;;;10.27;9.43;;;;;;;19.02;100.00;96464.28;7394213;19;20416;-76
2023/06/07 08:26:44;;;;;;;9.43;8.63;;;;;;;19.36;100.00;96450.56;7392351;19;20994;-76
2023/06/07 08:29:12;;;;;;;9.50;8.70;;;;;;;19.69;100.00;96476.34;7395783;19;20856;-76
2023/06/07 08:31:43;;;;;;;9.13;8.33;;;;;;;19.95;100.00;96465.25;7392447;19;20417;-76
2023/06/07 08:34:10;;;;;;;9.00;8.20;;;;;;;20.25;100.00;96462.16;7399492;19;20454;-76
2023/06/07 08:36:41;;;;;;;9.47;8.57;;;;;;;20.66;100.00;96454.41;7400530;19;20374;-77
2023/06/07 08:39:08;;;;;;;11.10;8.80;;;;;;;20.74;100.00;96452.47;7402208;19;20374;-76
2023/06/07 08:41:35;;;;;;;8.90;8.10;;;;;;;20.87;100.00;96458.19;7401681;19;20346;-76
2023/06/07 08:44:02;;;;;;;9.30;8.50;;;;;;;21.31;100.00;96475.69;7399559;19;20455;-76
2023/06/07 08:46:31;;;;;;;10.47;9.60;;;;;;;21.60;100.00;96470.91;7402054;19;20343;-76
2023/06/07 08:49:00;;;;;;;10.20;9.20;;;;;;;21.61;100.00;96461.69;7401564;19;20461;-76
2023/06/07 08:51:28;;;;;;;9.90;9.13;;;;;;;22.01;100.00;96489.84;7400051;19;20363;-76
2023/06/07 08:54:00;;;;;;;10.23;9.33;;;;;;;21.89;100.00;96482.25;7400531;19;20450;-76
2023/06/07 08:56:29;;;;;;;11.20;9.20;;;;;;;22.11;100.00;96462.09;7400484;19;20396;-76
2023/06/07 08:58:56;;;;;;;8.90;8.17;;;;;;;21.99;100.00;96484.88;7401614;19;20404;-76
2023/06/07 09:01:43;;;;;;;10.13;9.23;;;;;;;20.40;100.00;96451.38;7400004;19;20900;-76
2023/06/07 09:04:11;;;;;;;9.90;9.10;;;;;;;20.54;100.00;96446.00;7395090;19;20436;-76
2023/06/07 09:06:39;;;;;;;9.50;8.77;;;;;;;20.60;100.00;96444.47;7398724;19;20400;-76
2023/06/07 09:09:06;;;;;;;10.07;9.20;;;;;;;20.73;100.00;96456.31;7397421;19;20416;-76
2023/06/07 09:11:33;;;;;;;9.83;9.03;;;;;;;21.83;100.00;96484.59;7398230;19;20938;-76
2023/06/07 09:14:00;;;;;;;9.13;8.30;;;;;;;22.06;100.00;96489.47;7395480;19;20419;-76
2023/06/07 09:16:28;;;;;;;8.73;8.03;;;;;;;22.33;100.00;96482.31;7399169;19;20420;-76
2023/06/07 09:18:55;;;;;;;8.80;8.03;;;;;;;22.39;97.61;96471.84;7397077;19;20384;-76
2023/06/07 09:21:24;;;;;;;8.20;7.50;;;;;;;21.93;100.00;96493.78;7398717;19;20368;-76
2023/06/07 09:23:51;;;;;;;8.40;7.70;;;;;;;21.79;99.91;96487.34;7395328;19;20974;-76
2023/06/07 09:26:22;;;;;;;9.30;8.60;;;;;;;21.76;100.00;96487.34;7398471;19;20351;-76
2023/06/07 09:28:49;;;;;;;10.23;9.27;;;;;;;21.78;100.00;96480.41;7397053;19;20357;-76
2023/06/07 09:31:29;;;;;;;8.37;7.67;;;;;;;21.25;100.00;96478.03;7398696;19;20891;-76
2023/06/07 09:33:57;;;;;;;8.93;8.20;;;;;;;21.80;100.00;96467.31;7396507;19;20569;-76
2023/06/07 09:36:27;;;;;;;8.17;7.53;;;;;;;22.56;97.82;96479.00;7395816;19;21282;-76
2023/06/07 09:38:55;;;;;;;7.37;6.77;;;;;;;22.36;94.78;96478.06;7397413;19;20434;-76
2023/06/07 09:41:29;;;;;;;7.37;6.77;;;;;;;22.56;90.49;96465.50;7397248;19;20385;-76
2023/06/07 09:43:56;;;;;;;7.30;6.70;;;;;;;23.28;90.33;96487.84;7397502;19;20432;-76
2023/06/07 09:46:34;;;;;;;8.20;7.20;;;;;;;22.43;91.74;96473.34;7399814;19;20396;-76
2023/06/07 09:49:01;;;;;;;8.00;7.30;;;;;;;22.13;93.57;96463.22;7400181;19;20900;-76
2023/06/07 09:51:38;;;;;;;8.20;7.60;;;;;;;21.30;99.65;96480.31;7398689;19;20379;-76
2023/06/07 09:54:07;;;;;;;9.47;8.57;;;;;;;21.04;100.00;96468.09;7395697;19;20440;-76
2023/06/07 09:56:39;;;;;;;8.10;7.40;;;;;;;21.67;95.64;96455.50;7398565;19;20383;-76
2023/06/07 09:59:11;;;;;;;7.40;6.83;;;;;;;22.23;95.49;96417.75;7398528;19;20398;-76
2023/06/07 10:01:42;;;;;;;8.73;7.83;;;;;;;23.15;91.48;96472.59;7399953;19;20885;-76
2023/06/07 10:04:11;;;;;;;9.60;8.67;;;;;;;23.46;89.42;96460.59;7395866;19;20433;-76
2023/06/07 10:06:50;;;;;;;8.33;7.73;;;;;;;22.85;88.86;96444.44;7400069;19;20361;-76
2023/06/07 10:09:19;;;;;;;8.00;7.30;;;;;;;22.86;90.88;96451.38;7397648;19;20688;-76
2023/06/07 10:11:51;;;;;;;8.13;7.37;;;;;;;22.51;90.00;96476.75;7399171;19;20496;-76
2023/06/07 10:14:20;;;;;;;8.37;7.77;;;;;;;22.82;89.14;96426.34;7397737;19;20423;-76
2023/06/07 10:16:54;;;;;;;8.83;7.93;;;;;;;22.74;88.70;96446.47;7396027;19;20917;-76
2023/06/07 10:19:23;;;;;;;8.40;7.40;;;;;;;23.32;86.71;96452.72;7398274;19;20418;-76
2023/06/07 10:21:53;;;;;;;8.00;7.30;;;;;;;23.58;86.14;96451.22;7397891;19;20909;-76
2023/06/07 10:24:32;;;;;;;7.57;6.97;;;;;;;23.39;83.62;96416.78;7396399;19;20809;-76
2023/06/07 10:27:27;;;;;;;7.33;6.73;;;;;;;23.13;83.44;96464.16;7398690;19;20860;-76
2023/06/07 10:30:01;;;;;;;7.27;6.67;;;;;;;23.27;83.91;96461.28;7395889;19;20383;-76
2023/06/07 10:32:34;;;;;;;6.13;5.70;;;;;;;23.91;79.99;96456.91;7398273;19;20458;-76
2023/06/07 10:35:03;;;;;;;6.87;6.37;;;;;;;24.07;79.30;96454.31;7396406;19;20670;-76
2023/06/07 10:37:32;;;;;;;7.37;6.77;;;;;;;23.57;78.05;96436.97;7397656;19;20734;-76
2023/06/07 10:40:05;;;;;;;8.00;7.20;;;;;;;23.81;77.30;96448.56;7396441;19;20362;-76
2023/06/07 10:42:33;;;;;;;9.73;7.40;;;;;;;23.93;76.40;96425.59;7399319;19;20378;-76
2023/06/07 10:45:00;;;;;;;6.50;6.00;;;;;;;23.77;75.50;96423.56;7395411;19;20765;-76
2023/06/07 10:47:29;;;;;;;9.83;6.30;;;;;;;24.11;76.37;96457.72;7397732;19;20380;-76
2023/06/07 10:49:57;;;;;;;6.40;5.80;;;;;;;24.10;76.15;96427.25;7396099;19;20372;-76
2023/06/07 10:52:26;;;;;;;7.47;6.87;;;;;;;24.83;75.50;96432.88;7398189;19;20419;-76
2023/06/07 10:54:53;;;;;;;7.37;6.60;;;;;;;24.30;74.41;96440.81;7395683;19;20369;-76
2023/06/07 10:57:37;;;;;;;6.37;5.97;;;;;;;23.65;75.40;96415.25;7395367;19;20353;-76
2023/06/07 11:00:25;;;;;;;5.33;4.93;;;;;;;23.49;75.70;96438.19;7396826;19;20444;-76
2023/06/07 11:03:04;;;;;;;6.97;6.17;;;;;;;24.43;73.24;96436.31;7397699;19;20397;-76
2023/06/07 11:05:53;;;;;;;6.83;5.80;;;;;;;23.95;74.40;96436.75;7395224;19;20356;-76
2023/06/07 11:08:26;;;;;;;6.60;6.10;;;;;;;22.86;76.10;96418.25;7405552;19;20376;-76
2023/06/07 11:11:04;;;;;;;5.70;5.20;;;;;;;23.32;74.95;96424.97;7431204;19;20442;-76
2023/06/07 11:13:43;;;;;;;6.20;5.60;;;;;;;23.74;73.93;96429.00;7427863;19;20454;-76
2023/06/07 11:16:22;;;;;;;6.60;5.50;;;;;;;24.10;74.33;96419.13;7417259;19;20388;-76
2023/06/07 11:19:03;;;;;;;6.20;5.70;;;;;;;24.20;73.61;96427.47;7395110;19;20374;-76
2023/06/07 11:21:55;;;;;;;6.10;5.60;;;;;;;23.82;72.94;96427.72;7396369;19;20372;-76
2023/06/07 11:24:23;;;;;;;7.43;6.07;;;;;;;23.16;74.52;96398.59;7395007;19;20456;-74
2023/06/07 11:26:50;;;;;;;6.00;5.60;;;;;;;23.68;73.51;96409.03;7394688;19;20885;-74
2023/06/07 11:29:19;;;;;;;5.83;4.63;;;;;;;24.28;71.82;96407.25;7396339;19;20386;-74